Time;durP1;ratioP1;P1;durP2;ratioP2;P2;SDS_P1;SDS_P2;PMS_P1;PMS_P2;Temp;Humidity;BMP_temperature;BMP_pressure;BME280_temperature;BME280_humidity;BME280_pressure;Samples;Min_cycle;Max_cycle;Signal;HPM_P1;HPM_P2
2021/12/11 00:00:46;;;;;;;47.38;18.35;;;;;;;2.38;100.00;100618.28;5038973;28;20378;-74
2021/12/11 00:03:20;;;;;;;44.40;17.98;;;;;;;2.37;100.00;100619.19;5036837;28;20041;-70
2021/12/11 00:05:51;;;;;;;47.33;19.40;;;;;;;2.38;100.00;100624.44;5036764;28;20055;-69
2021/12/11 00:08:23;;;;;;;40.83;19.45;;;;;;;2.39;100.00;100625.31;5036518;28;20102;-70
2021/12/11 00:10:58;;;;;;;47.00;20.83;;;;;;;2.39;100.00;100630.59;5037660;28;20160;-70
2021/12/11 00:13:28;;;;;;;49.60;19.98;;;;;;;2.40;100.00;100638.47;5037961;28;20140;-70
2021/12/11 00:15:57;;;;;;;49.35;19.55;;;;;;;2.43;100.00;100646.38;5036534;28;20103;-69
2021/12/11 00:18:27;;;;;;;50.38;19.25;;;;;;;2.47;100.00;100647.25;5036677;28;20424;-69
2021/12/11 00:20:58;;;;;;;44.63;20.98;;;;;;;2.48;100.00;100649.00;5037413;28;20049;-69
2021/12/11 00:23:31;;;;;;;50.05;19.17;;;;;;;2.49;100.00;100663.06;5037563;28;20051;-69
2021/12/11 00:26:01;;;;;;;53.20;21.30;;;;;;;2.49;100.00;100657.78;5036313;28;20045;-69
2021/12/11 00:28:29;;;;;;;45.17;19.70;;;;;;;2.50;100.00;100670.94;5038079;28;20060;-69
2021/12/11 00:30:59;;;;;;;48.60;20.73;;;;;;;2.50;100.00;100678.84;5035385;28;20052;-69
2021/12/11 00:33:34;;;;;;;43.85;18.50;;;;;;;2.51;100.00;100683.22;5035331;28;20403;-69
2021/12/11 00:36:09;;;;;;;48.00;20.27;;;;;;;2.51;100.00;100691.13;5036847;28;20071;-69
2021/12/11 00:38:39;;;;;;;48.70;20.10;;;;;;;2.55;100.00;100698.13;5036472;28;21216;-70
2021/12/11 00:41:14;;;;;;;46.70;18.90;;;;;;;2.54;100.00;100698.16;5035779;28;20158;-69
2021/12/11 00:43:43;;;;;;;47.10;21.27;;;;;;;2.54;100.00;100709.56;5035310;28;20404;-69
2021/12/11 00:46:17;;;;;;;49.20;19.13;;;;;;;2.54;100.00;100709.56;5036134;28;20529;-69
2021/12/11 00:48:45;;;;;;;49.17;20.10;;;;;;;2.54;100.00;100716.59;5037522;28;20092;-69
2021/12/11 00:51:17;;;;;;;44.25;19.65;;;;;;;2.55;100.00;100720.97;5034305;28;20045;-69
2021/12/11 00:53:50;;;;;;;39.13;18.95;;;;;;;2.56;100.00;100731.53;5035767;28;20064;-69
2021/12/11 00:56:23;;;;;;;46.17;19.40;;;;;;;2.58;100.00;100726.25;5036590;28;20223;-69
2021/12/11 00:58:55;;;;;;;50.35;20.60;;;;;;;2.59;100.00;100736.78;5035794;28;20152;-69
2021/12/11 01:01:26;;;;;;;45.38;19.80;;;;;;;2.59;100.00;100731.53;5036694;28;20156;-69
2021/12/11 01:03:58;;;;;;;51.53;21.08;;;;;;;2.60;100.00;100735.91;5035700;28;20054;-69
2021/12/11 01:06:31;;;;;;;42.60;18.70;;;;;;;2.61;100.00;100750.84;5035661;28;20072;-69
2021/12/11 01:09:02;;;;;;;47.00;19.67;;;;;;;2.61;100.00;100748.19;5035030;28;20062;-69
2021/12/11 01:11:34;;;;;;;44.67;18.98;;;;;;;2.63;100.00;100760.50;5036751;28;20080;-69
2021/12/11 01:14:11;;;;;;;51.30;21.55;;;;;;;2.63;100.00;100766.66;5035750;28;20135;-69
2021/12/11 01:16:41;;;;;;;49.55;21.27;;;;;;;2.62;100.00;100772.78;5036656;28;20055;-68
2021/12/11 01:19:16;;;;;;;52.95;21.50;;;;;;;2.63;100.00;100774.53;5036389;28;20064;-69
2021/12/11 01:21:56;;;;;;;50.85;20.40;;;;;;;2.64;100.00;100783.31;5037829;28;20044;-69
2021/12/11 01:24:31;;;;;;;46.65;20.05;;;;;;;2.62;100.00;100780.69;5034419;28;20107;-70
2021/12/11 01:27:04;;;;;;;48.40;19.20;;;;;;;2.62;100.00;100780.69;5035477;28;20107;-69
2021/12/11 01:29:33;;;;;;;54.60;21.20;;;;;;;2.63;100.00;100774.53;5034412;28;20037;-70
2021/12/11 01:32:02;;;;;;;55.67;23.92;;;;;;;2.64;100.00;100786.84;5034152;28;20415;-69
2021/12/11 01:34:31;;;;;;;54.00;21.65;;;;;;;2.63;100.00;100793.00;5035149;28;20051;-69
2021/12/11 01:37:01;;;;;;;51.35;20.77;;;;;;;2.64;100.00;100788.59;5034306;28;20086;-69
2021/12/11 01:39:31;;;;;;;43.00;21.30;;;;;;;2.64;100.00;100800.03;5033662;28;20049;-69
2021/12/11 01:42:02;;;;;;;47.42;20.67;;;;;;;2.64;100.00;100812.31;5034126;28;20136;-69
2021/12/11 01:44:33;;;;;;;48.70;22.05;;;;;;;2.64;100.00;100810.56;5035599;28;20053;-69
2021/12/11 01:47:09;;;;;;;51.97;20.20;;;;;;;2.63;100.00;100816.69;5036032;28;20955;-69
2021/12/11 01:49:39;;;;;;;53.80;22.10;;;;;;;2.63;100.00;100819.34;5035448;28;20056;-69
2021/12/11 01:52:13;;;;;;;49.35;21.15;;;;;;;2.59;100.00;100822.88;5031837;28;20071;-69
2021/12/11 01:54:44;;;;;;;43.30;19.88;;;;;;;2.59;100.00;100836.03;5033957;28;20061;-69
2021/12/11 01:57:19;;;;;;;49.40;21.50;;;;;;;2.59;100.00;100841.31;5036649;28;20049;-69
2021/12/11 01:59:53;;;;;;;47.17;19.48;;;;;;;2.55;100.00;100842.16;5032313;28;20481;-69
2021/12/11 02:02:27;;;;;;;45.75;21.05;;;;;;;2.54;100.00;100851.81;5034741;28;20063;-69
2021/12/11 02:04:55;;;;;;;52.72;22.42;;;;;;;2.51;100.00;100853.59;5034073;28;20057;-69
2021/12/11 02:07:26;;;;;;;52.20;22.60;;;;;;;2.48;100.00;100849.19;5035458;28;20044;-69
2021/12/11 02:09:58;;;;;;;50.35;20.17;;;;;;;2.43;100.00;100861.47;5034385;28;20844;-69
2021/12/11 02:12:33;;;;;;;44.42;18.02;;;;;;;2.41;100.00;100869.34;5035331;28;20048;-69
2021/12/11 02:15:03;;;;;;;45.30;19.95;;;;;;;2.36;100.00;100878.13;5034669;28;20336;-73
2021/12/11 02:17:39;;;;;;;44.30;19.77;;;;;;;2.32;100.00;100884.28;5032995;28;20057;-73
2021/12/11 02:20:11;;;;;;;44.20;18.48;;;;;;;2.30;100.00;100878.09;5032674;28;20482;-69
2021/12/11 02:22:45;;;;;;;52.58;21.33;;;;;;;2.26;100.00;100889.53;5033758;28;20045;-69
2021/12/11 02:25:15;;;;;;;;;;;;;;;2.22;100.00;100889.50;5034156;28;20417;-69
2021/12/11 02:27:52;;;;;;;46.65;20.77;;;;;;;2.17;100.00;100891.25;5033073;28;19921;-69
2021/12/11 02:30:24;;;;;;;48.15;20.40;;;;;;;2.13;100.00;100907.91;5032866;28;20107;-73
2021/12/11 02:33:03;;;;;;;47.17;20.60;;;;;;;2.16;100.00;100907.03;5035593;28;20140;-75
2021/12/11 02:35:37;;;;;;;48.80;21.58;;;;;;;2.14;100.00;100909.66;5033116;28;21290;-72
2021/12/11 02:38:10;;;;;;;;;;;;;;;2.14;100.00;100917.56;5034293;28;20128;-72
2021/12/11 02:40:43;;;;;;;38.72;17.77;;;;;;;2.13;100.00;100923.72;5033191;28;19928;-69
2021/12/11 02:43:17;;;;;;;44.67;19.23;;;;;;;2.09;100.00;100919.28;5034766;28;20428;-69
2021/12/11 02:45:48;;;;;;;49.95;22.05;;;;;;;2.10;100.00;100930.72;5032767;28;20180;-70
2021/12/11 02:48:21;;;;;;;52.92;21.13;;;;;;;2.08;100.00;100930.72;5033666;28;20568;-71
2021/12/11 02:50:53;;;;;;;46.63;20.80;;;;;;;2.09;100.00;100931.59;5033937;28;20386;-71
2021/12/11 02:53:28;;;;;;;46.47;20.60;;;;;;;2.08;100.00;100928.06;5033929;28;20544;-71
2021/12/11 02:56:03;;;;;;;48.10;19.70;;;;;;;2.07;100.00;100930.69;5035533;28;20053;-71
2021/12/11 02:58:35;;;;;;;44.15;17.75;;;;;;;2.06;100.00;100929.84;5031934;28;20108;-68
2021/12/11 03:01:08;;;;;;;49.50;19.45;;;;;;;2.07;100.00;100935.97;5033090;28;20095;-72
2021/12/11 03:03:41;;;;;;;37.50;18.10;;;;;;;2.08;100.00;100932.44;5034093;28;20071;-72
2021/12/11 03:06:17;;;;;;;41.45;18.17;;;;;;;2.05;100.00;100942.09;5032744;28;20045;-74
2021/12/11 03:08:49;;;;;;;49.67;21.13;;;;;;;2.03;100.00;100946.47;5032661;28;20045;-72
2021/12/11 03:11:23;;;;;;;48.10;20.02;;;;;;;2.03;100.00;100937.72;5036277;28;20338;-73
2021/12/11 03:13:52;;;;;;;45.22;17.98;;;;;;;2.01;100.00;100942.06;5034848;28;20041;-72
2021/12/11 03:16:21;;;;;;;45.70;19.55;;;;;;;1.96;100.00;100939.44;5035356;28;20512;-73
2021/12/11 03:18:51;;;;;;;40.17;18.27;;;;;;;1.95;100.00;100936.78;5035057;28;20148;-73
2021/12/11 03:21:19;;;;;;;40.78;18.50;;;;;;;1.98;100.00;100942.94;5035448;28;20053;-73
2021/12/11 03:23:51;;;;;;;45.78;19.52;;;;;;;1.96;100.00;100941.16;5032883;28;20055;-73
2021/12/11 03:26:19;;;;;;;43.08;18.52;;;;;;;1.94;100.00;100948.19;5035542;28;21066;-74
2021/12/11 03:28:48;;;;;;;41.70;18.55;;;;;;;1.88;100.00;100954.28;5035560;28;20231;-73
2021/12/11 03:31:17;;;;;;;38.47;18.65;;;;;;;1.89;100.00;100958.69;5036098;28;20535;-73
2021/12/11 03:33:47;;;;;;;40.88;19.23;;;;;;;1.89;100.00;100953.44;5036254;28;20509;-73
2021/12/11 03:36:17;;;;;;;39.10;16.35;;;;;;;1.95;100.00;100958.72;5038156;28;20143;-73
2021/12/11 03:38:52;;;;;;;39.83;16.95;;;;;;;1.91;100.00;100959.59;5039025;28;20052;-73
2021/12/11 03:41:21;;;;;;;43.65;18.23;;;;;;;1.93;100.00;100956.97;5036150;28;20061;-73
2021/12/11 03:43:49;;;;;;;40.75;17.30;;;;;;;1.92;100.00;100963.97;5040151;28;20045;-73
2021/12/11 03:46:18;;;;;;;38.75;17.20;;;;;;;1.93;100.00;100963.09;5039290;28;20052;-74
2021/12/11 03:48:49;;;;;;;38.20;18.88;;;;;;;1.96;100.00;100965.75;5036505;28;20053;-73
2021/12/11 03:51:28;;;;;;;33.60;17.10;;;;;;;2.06;100.00;100969.31;5037386;28;20059;-73
2021/12/11 03:54:00;;;;;;;39.85;16.92;;;;;;;2.14;100.00;100975.47;5036694;28;20098;-73
2021/12/11 03:56:28;;;;;;;44.35;16.67;;;;;;;2.16;100.00;100978.13;5034667;28;20045;-69
2021/12/11 03:58:56;;;;;;;40.53;17.77;;;;;;;2.12;100.00;100969.31;5035016;28;20049;-69
2021/12/11 04:01:28;;;;;;;43.25;17.77;;;;;;;2.14;100.00;100979.88;5037888;28;20076;-69
2021/12/11 04:03:59;;;;;;;34.28;15.63;;;;;;;2.23;100.00;100972.91;5036870;28;20115;-69
2021/12/11 04:06:27;;;;;;;41.55;17.65;;;;;;;2.29;100.00;100982.56;5037241;28;20581;-69
2021/12/11 04:08:59;;;;;;;42.13;17.98;;;;;;;2.39;100.00;100980.84;5036814;28;20040;-69
2021/12/11 04:11:30;;;;;;;41.13;16.98;;;;;;;2.39;100.00;100981.72;5037364;28;20052;-69
2021/12/11 04:14:02;;;;;;;47.42;18.40;;;;;;;2.45;100.00;100986.13;5036088;28;20076;-69
2021/12/11 04:16:31;;;;;;;41.28;18.55;;;;;;;2.44;100.00;100992.28;5037167;28;20693;-69
2021/12/11 04:19:00;;;;;;;37.05;16.65;;;;;;;2.45;100.00;100991.41;5035659;28;20559;-70
2021/12/11 04:21:29;;;;;;;38.08;16.27;;;;;;;2.38;100.00;101000.16;5038489;28;20049;-69
2021/12/11 04:23:58;;;;;;;38.92;17.15;;;;;;;2.37;100.00;101003.69;5033590;28;20493;-69
2021/12/11 04:26:26;;;;;;;39.08;17.05;;;;;;;2.42;100.00;101005.47;5036586;28;20049;-69
2021/12/11 04:28:54;;;;;;;39.85;16.48;;;;;;;2.44;100.00;101010.72;5037011;28;20048;-69
2021/12/11 04:31:27;;;;;;;36.83;15.82;;;;;;;2.46;100.00;101008.09;5037242;28;20187;-70
2021/12/11 04:33:57;;;;;;;39.03;17.42;;;;;;;2.45;100.00;101008.97;5037457;28;20053;-69
2021/12/11 04:36:34;;;;;;;39.65;16.77;;;;;;;2.44;100.00;101010.72;5036544;28;20045;-69
2021/12/11 04:39:07;;;;;;;37.55;15.38;;;;;;;2.41;100.00;101010.72;5035684;28;20061;-69
2021/12/11 04:41:48;;;;;;;40.55;16.17;;;;;;;2.40;100.00;101006.31;5036677;28;20066;-70
2021/12/11 04:44:22;;;;;;;33.30;13.77;;;;;;;2.36;100.00;101013.31;5038058;28;20072;-69
2021/12/11 04:46:52;;;;;;;32.42;14.05;;;;;;;2.34;100.00;101016.84;5035579;28;20412;-69
2021/12/11 04:49:30;;;;;;;30.25;13.65;;;;;;;2.35;100.00;101014.22;5037118;28;20489;-69
2021/12/11 04:52:04;;;;;;;33.33;14.30;;;;;;;2.34;100.00;101016.84;5037995;28;20053;-69
2021/12/11 04:54:46;;;;;;;;;;;;;;;2.33;100.00;101018.56;5037208;28;20049;-69
2021/12/11 05:00:08;;;;;;;33.83;13.52;;;;;;;2.36;100.00;101028.25;5021237;28;20052;-69
2021/12/11 05:03:26;;;;;;;31.83;13.07;;;;;;;2.37;100.00;101024.75;5034398;28;20049;-69
2021/12/11 05:06:14;;;;;;;28.30;11.20;;;;;;;2.36;100.00;101034.38;5036726;28;20094;-74
2021/12/11 05:11:42;;;;;;;30.38;10.90;;;;;;;2.42;100.00;101033.56;5010799;28;20049;-73
2021/12/11 05:14:13;;;;;;;22.38;9.23;;;;;;;2.50;100.00;101049.38;5034712;28;20095;-73
2021/12/11 05:16:42;;;;;;;22.98;8.50;;;;;;;2.58;100.00;101053.81;5034375;28;20601;-73
2021/12/11 05:19:11;;;;;;;20.85;7.70;;;;;;;2.59;100.00;101049.44;5036534;28;20480;-73
2021/12/11 05:21:39;;;;;;;20.70;8.55;;;;;;;2.58;100.00;101058.19;5034868;28;20041;-73
2021/12/11 05:24:09;;;;;;;17.85;7.03;;;;;;;2.75;100.00;101056.50;5035168;28;20134;-73
2021/12/11 05:26:38;;;;;;;15.45;5.70;;;;;;;2.76;100.00;101055.66;5037347;28;20045;-73
2021/12/11 05:29:07;;;;;;;17.85;5.25;;;;;;;2.77;100.00;101060.03;5035484;28;20088;-73
2021/12/11 05:31:40;;;;;;;13.68;5.50;;;;;;;2.85;100.00;101057.44;5034089;28;20045;-73
2021/12/11 05:34:08;;;;;;;13.35;3.60;;;;;;;3.28;100.00;101062.78;5037256;28;20179;-73
2021/12/11 05:36:38;;;;;;;9.30;2.78;;;;;;;3.42;100.00;101068.06;5035969;28;20048;-73
2021/12/11 05:39:09;;;;;;;9.77;2.78;;;;;;;3.53;100.00;101071.63;5034237;28;20055;-73
2021/12/11 05:41:40;;;;;;;9.88;2.35;;;;;;;3.95;100.00;101076.91;5035109;28;20053;-73
2021/12/11 05:44:10;;;;;;;14.00;3.17;;;;;;;4.23;100.00;101082.13;5036411;28;20084;-73
2021/12/11 05:46:39;;;;;;;10.38;2.15;;;;;;;4.32;100.00;101075.94;5032303;28;20143;-69
2021/12/11 05:49:08;;;;;;;8.27;2.80;;;;;;;4.39;100.00;101089.16;5035797;28;20051;-69
2021/12/11 05:51:40;;;;;;;8.80;2.17;;;;;;;4.47;100.00;101097.03;5035261;28;20099;-69
2021/12/11 05:54:14;;;;;;;11.90;2.10;;;;;;;4.45;100.00;101099.69;5035578;28;20564;-69
2021/12/11 05:56:45;;;;;;;10.82;2.38;;;;;;;4.59;100.00;101081.13;5034617;28;20107;-69
2021/12/11 05:59:16;;;;;;;13.68;2.45;;;;;;;4.62;100.00;101090.84;5034100;28;20048;-69
2021/12/11 06:01:46;;;;;;;7.82;1.98;;;;;;;4.61;100.00;101094.34;5036554;28;20148;-70
2021/12/11 06:04:23;;;;;;;9.30;2.22;;;;;;;4.60;100.00;101106.69;5035119;28;20063;-69
2021/12/11 06:06:55;;;;;;;11.88;2.35;;;;;;;4.65;100.00;101117.25;5035428;28;20118;-74
2021/12/11 06:09:24;;;;;;;15.48;2.70;;;;;;;4.79;100.00;101126.00;5036269;28;20135;-73
2021/12/11 06:11:57;;;;;;;10.95;2.55;;;;;;;4.79;100.00;101123.38;5037184;28;20048;-73
2021/12/11 06:14:36;;;;;;;9.55;2.33;;;;;;;4.89;100.00;101120.66;5034904;28;20053;-76
2021/12/11 06:17:09;;;;;;;7.85;2.13;;;;;;;4.86;100.00;101127.75;5036008;28;20662;-74
2021/12/11 06:19:48;;;;;;;13.85;2.25;;;;;;;4.98;100.00;101134.75;5033441;28;20126;-73
2021/12/11 06:22:17;;;;;;;7.10;1.92;;;;;;;5.02;100.00;101146.19;5035925;28;20048;-73
2021/12/11 06:24:47;;;;;;;8.18;1.70;;;;;;;4.97;100.00;101156.81;5034530;28;20509;-75
2021/12/11 06:27:17;;;;;;;8.88;2.05;;;;;;;4.92;100.00;101163.88;5034635;28;20110;-73
2021/12/11 06:29:45;;;;;;;5.00;2.17;;;;;;;4.96;100.00;101172.69;5036512;28;20045;-74
2021/12/11 06:32:13;;;;;;;8.20;2.08;;;;;;;4.96;100.00;101184.13;5035776;28;20131;-73
2021/12/11 06:34:41;;;;;;;6.70;1.67;;;;;;;5.02;100.00;101189.41;5034541;28;20041;-73
2021/12/11 06:37:11;;;;;;;3.55;1.45;;;;;;;5.02;100.00;101191.16;5034046;28;20053;-74
2021/12/11 06:39:40;;;;;;;6.38;1.42;;;;;;;4.97;100.00;101198.22;5032655;28;20400;-73
2021/12/11 06:42:18;;;;;;;3.30;1.42;;;;;;;4.97;100.00;101198.22;5035675;28;20052;-74
2021/12/11 06:44:47;;;;;;;5.22;1.60;;;;;;;4.92;100.00;101205.28;5033721;28;20564;-73
2021/12/11 06:47:16;;;;;;;3.83;1.35;;;;;;;4.91;100.00;101207.06;5033890;28;20098;-73
2021/12/11 06:49:45;;;;;;;3.55;1.73;;;;;;;4.81;100.00;101205.34;5035403;28;20049;-74
2021/12/11 06:52:18;;;;;;;4.97;1.73;;;;;;;4.85;100.00;101213.25;5034699;28;20056;-73
2021/12/11 06:54:47;;;;;;;5.38;2.10;;;;;;;4.89;100.00;101222.06;5034729;28;20059;-73
2021/12/11 06:57:18;;;;;;;4.63;1.70;;;;;;;4.95;100.00;101227.31;5034375;28;20195;-73
2021/12/11 06:59:47;;;;;;;5.75;1.80;;;;;;;4.90;100.00;101233.50;5035988;28;20041;-73
2021/12/11 07:02:19;;;;;;;8.18;2.95;;;;;;;4.88;100.00;101237.94;5032757;28;20132;-75
2021/12/11 07:04:49;;;;;;;4.03;1.73;;;;;;;4.97;100.00;101248.47;5033467;28;20045;-73
2021/12/11 07:07:21;;;;;;;10.93;2.05;;;;;;;4.96;100.00;101254.66;5038821;28;20060;-73
2021/12/11 07:09:53;;;;;;;3.95;2.28;;;;;;;4.97;100.00;101264.34;5037302;28;20505;-73
2021/12/11 07:12:23;;;;;;;6.40;2.00;;;;;;;4.97;100.00;101265.25;5037062;28;20087;-74
2021/12/11 07:14:51;;;;;;;7.65;1.95;;;;;;;4.94;100.00;101272.28;5041334;28;20048;-75
2021/12/11 07:17:20;;;;;;;6.40;2.20;;;;;;;4.98;100.00;101269.63;5039088;28;20037;-74
2021/12/11 07:19:48;;;;;;;10.13;2.53;;;;;;;4.96;100.00;101278.47;5039895;28;20048;-75
2021/12/11 07:22:17;;;;;;;9.18;2.53;;;;;;;4.98;100.00;101282.84;5037280;28;20114;-74
2021/12/11 07:24:49;;;;;;;6.43;2.38;;;;;;;4.97;100.00;101286.41;5038398;28;20045;-74
2021/12/11 07:27:18;;;;;;;6.22;2.20;;;;;;;4.95;100.00;101303.16;5039507;28;20067;-74
2021/12/11 07:29:48;;;;;;;11.98;2.75;;;;;;;4.97;100.00;101307.56;5038837;28;20041;-74
2021/12/11 07:32:16;;;;;;;10.68;2.33;;;;;;;4.98;100.00;101304.00;5038185;28;20505;-74
2021/12/11 07:34:44;;;;;;;7.47;2.28;;;;;;;4.99;100.00;101313.72;5038072;28;20199;-73
2021/12/11 07:37:12;;;;;;;10.38;2.42;;;;;;;5.04;100.00;101316.38;5037484;28;20052;-73
2021/12/11 07:39:40;;;;;;;7.40;2.17;;;;;;;5.05;100.00;101319.00;5038558;28;20085;-74
2021/12/11 07:42:08;;;;;;;11.13;3.60;;;;;;;5.01;100.00;101333.13;5039705;28;20045;-73
2021/12/11 07:44:37;;;;;;;15.55;4.50;;;;;;;4.99;100.00;101339.31;5037409;28;20615;-73
2021/12/11 07:47:08;;;;;;;9.15;3.83;;;;;;;4.98;100.00;101342.81;5036262;28;20502;-69
2021/12/11 07:49:36;;;;;;;9.95;4.57;;;;;;;4.98;100.00;101359.56;5037362;28;20048;-69
2021/12/11 07:52:05;;;;;;;15.00;4.45;;;;;;;4.97;100.00;101368.41;5037017;28;20084;-69
2021/12/11 07:54:33;;;;;;;14.60;5.45;;;;;;;4.94;100.00;101373.69;5036050;28;20928;-69
2021/12/11 07:57:09;;;;;;;17.20;5.75;;;;;;;4.90;100.00;101377.19;5037578;28;20136;-69
2021/12/11 07:59:37;;;;;;;20.23;5.82;;;;;;;4.90;100.00;101378.97;5038596;28;20515;-69
2021/12/11 08:02:06;;;;;;;15.13;5.28;;;;;;;4.89;100.00;101382.47;5036823;28;20298;-69
2021/12/11 08:04:35;;;;;;;19.00;5.47;;;;;;;4.86;100.00;101380.72;5037749;28;20127;-69
2021/12/11 08:07:04;;;;;;;13.15;4.60;;;;;;;4.86;100.00;101388.66;5036017;28;20053;-69
2021/12/11 08:09:32;;;;;;;15.23;5.25;;;;;;;4.85;100.00;101395.72;5038716;28;20055;-69
2021/12/11 08:12:05;;;;;;;13.50;5.65;;;;;;;4.83;100.00;101399.22;5035935;28;20123;-69
2021/12/11 08:14:36;;;;;;;15.27;5.10;;;;;;;4.78;100.00;101399.22;5039878;28;20045;-69
2021/12/11 08:17:13;;;;;;;17.00;6.00;;;;;;;4.81;100.00;101409.81;5034865;28;20122;-69
2021/12/11 08:19:41;;;;;;;14.70;5.78;;;;;;;4.77;100.00;101412.47;5037810;28;20485;-69
2021/12/11 08:22:09;;;;;;;13.50;6.85;;;;;;;4.79;100.00;101418.63;5038649;28;20065;-70
2021/12/11 08:24:39;;;;;;;13.77;6.13;;;;;;;4.80;100.00;101423.94;5037473;28;20068;-70
2021/12/11 08:27:11;;;;;;;17.73;6.50;;;;;;;4.79;100.00;101432.72;5036454;28;20045;-69
2021/12/11 08:29:45;;;;;;;13.50;6.65;;;;;;;4.72;100.00;101433.59;5036138;28;20089;-69
2021/12/11 08:32:14;;;;;;;14.77;7.07;;;;;;;4.70;100.00;101439.75;5036283;28;20393;-70
2021/12/11 08:34:42;;;;;;;18.05;6.50;;;;;;;4.65;100.00;101451.22;5037810;28;20053;-74
2021/12/11 08:37:15;;;;;;;18.05;7.40;;;;;;;4.66;100.00;101454.72;5037609;28;20055;-74
2021/12/11 08:39:44;;;;;;;18.52;6.65;;;;;;;4.63;100.00;101452.97;5036281;28;20041;-73
2021/12/11 08:42:15;;;;;;;15.68;6.47;;;;;;;4.66;100.00;101460.03;5038764;28;20045;-73
2021/12/11 08:44:50;;;;;;;18.02;7.03;;;;;;;4.63;100.00;101462.66;5036478;28;20049;-73
2021/12/11 08:47:21;;;;;;;15.75;6.40;;;;;;;4.62;100.00;101467.06;5035974;28;20513;-74
2021/12/11 08:49:51;;;;;;;19.52;7.60;;;;;;;4.62;100.00;101468.84;5035158;28;20510;-73
2021/12/11 08:52:22;;;;;;;17.50;9.05;;;;;;;4.54;100.00;101476.72;5034836;28;20045;-73
2021/12/11 08:54:55;;;;;;;23.80;9.05;;;;;;;4.46;100.00;101478.47;5038565;28;20057;-74
2021/12/11 08:57:27;;;;;;;21.40;9.60;;;;;;;4.39;100.00;101485.50;5038146;28;20420;-73
2021/12/11 08:59:59;;;;;;;21.27;7.95;;;;;;;4.33;100.00;101490.75;5036075;28;20077;-73
2021/12/11 09:02:34;;;;;;;16.75;8.77;;;;;;;4.30;100.00;101502.19;5034794;28;20056;-74
2021/12/11 09:05:09;;;;;;;21.42;9.13;;;;;;;4.27;100.00;101499.56;5036058;28;20049;-70
2021/12/11 09:07:43;;;;;;;21.10;9.48;;;;;;;4.22;100.00;101505.66;5035715;28;20493;-69
2021/12/11 09:10:15;;;;;;;21.50;9.40;;;;;;;4.16;100.00;101514.47;5037228;28;20368;-70
2021/12/11 09:12:46;;;;;;;;;;;;;;;4.14;100.00;101507.38;5035133;28;20076;-70
2021/12/11 09:15:18;;;;;;;19.42;9.27;;;;;;;4.06;100.00;101515.28;5039260;28;19928;-74
2021/12/11 09:17:51;;;;;;;22.42;9.30;;;;;;;4.05;100.00;101511.78;5037718;28;20133;-73
2021/12/11 09:20:33;;;;;;;19.17;9.00;;;;;;;4.00;100.00;101518.78;5036870;28;20127;-73
2021/12/11 09:23:08;;;;;;;20.70;9.50;;;;;;;3.97;100.00;101518.75;5035903;28;20057;-73
2021/12/11 09:25:43;;;;;;;26.95;9.95;;;;;;;3.99;100.00;101518.78;5036270;28;20057;-74
2021/12/11 09:28:15;;;;;;;32.63;12.93;;;;;;;4.00;100.00;101524.06;5034073;28;20049;-74
2021/12/11 09:30:52;;;;;;;25.75;11.13;;;;;;;3.97;100.00;101521.41;5035961;28;20156;-73
2021/12/11 09:33:25;;;;;;;22.20;9.73;;;;;;;4.04;100.00;101536.41;5034660;28;20052;-73
2021/12/11 09:35:59;;;;;;;22.08;9.60;;;;;;;4.04;100.00;101540.81;5034840;28;20509;-73
2021/12/11 09:38:30;;;;;;;26.23;10.75;;;;;;;4.03;100.00;101539.91;5034298;28;20053;-73
2021/12/11 09:40:59;;;;;;;23.33;12.00;;;;;;;4.06;100.00;101541.69;5038486;28;20056;-73
2021/12/11 09:43:40;;;;;;;23.08;9.68;;;;;;;4.02;100.00;101543.44;5036559;28;20497;-73
2021/12/11 09:46:12;;;;;;;25.13;11.07;;;;;;;4.01;100.00;101544.31;5035641;28;20041;-73
2021/12/11 09:48:40;;;;;;;29.45;12.07;;;;;;;4.07;100.00;101549.63;5034581;28;20161;-73
2021/12/11 09:51:15;;;;;;;19.92;9.52;;;;;;;4.03;100.00;101555.75;5035533;28;20138;-75
2021/12/11 09:53:47;;;;;;;30.00;11.82;;;;;;;4.10;100.00;101556.69;5034580;28;20052;-72
2021/12/11 09:56:22;;;;;;;23.73;10.38;;;;;;;4.18;100.00;101567.31;5036547;28;20744;-73
2021/12/11 09:58:53;;;;;;;27.17;10.73;;;;;;;4.30;100.00;101570.88;5036463;28;20283;-73
2021/12/11 10:01:28;;;;;;;24.20;9.60;;;;;;;4.37;100.00;101569.16;5036507;28;20053;-72
2021/12/11 10:04:01;;;;;;;27.40;10.52;;;;;;;4.40;100.00;101569.19;5037415;28;20045;-73
2021/12/11 10:06:41;;;;;;;26.48;10.57;;;;;;;4.45;100.00;101578.00;5033924;28;20045;-73
2021/12/11 10:09:20;;;;;;;26.02;9.43;;;;;;;4.49;100.00;101585.09;5037152;28;20041;-73
2021/12/11 10:11:59;;;;;;;18.98;8.75;;;;;;;4.60;100.00;101590.44;5034225;28;20052;-75
2021/12/11 10:14:30;;;;;;;;;;;;;;;4.63;100.00;101590.44;5036341;28;20278;-73
2021/12/11 10:17:04;;;;;;;19.42;7.93;;;;;;;4.70;100.00;101598.38;5033991;28;20901;-73
2021/12/11 10:19:31;;;;;;;25.95;10.25;;;;;;;4.66;100.00;101600.13;5035356;28;20048;-73
2021/12/11 10:22:05;;;;;;;21.20;8.57;;;;;;;4.80;100.00;101605.47;5034607;28;20059;-72
2021/12/11 10:24:35;;;;;;;20.13;8.43;;;;;;;4.84;100.00;101599.34;5035807;28;20137;-73
2021/12/11 10:27:07;;;;;;;22.27;8.45;;;;;;;4.97;100.00;101610.81;5033910;28;20080;-73
2021/12/11 10:29:37;;;;;;;21.42;9.15;;;;;;;5.00;100.00;101605.56;5033770;28;20059;-73
2021/12/11 10:32:08;;;;;;;19.63;8.15;;;;;;;5.04;100.00;101608.22;5034833;28;20501;-73
2021/12/11 10:34:39;;;;;;;23.23;9.88;;;;;;;5.11;100.00;101613.50;5034511;28;20052;-73
2021/12/11 10:37:11;;;;;;;22.45;9.23;;;;;;;5.24;100.00;101615.31;5035665;28;20133;-73
2021/12/11 10:39:43;;;;;;;22.65;9.68;;;;;;;5.36;100.00;101615.38;5032752;28;20094;-73
2021/12/11 10:42:13;;;;;;;19.88;8.60;;;;;;;5.49;100.00;101618.91;5037277;28;21436;-74
2021/12/11 10:44:45;;;;;;;23.77;9.68;;;;;;;5.57;100.00;101616.28;5037627;28;20423;-74
2021/12/11 10:47:18;;;;;;;23.52;10.10;;;;;;;5.61;100.00;101624.19;5039484;28;20099;-75
2021/12/11 10:50:09;;;;;;;27.33;10.25;;;;;;;5.78;100.00;101631.28;5036812;28;20099;-73
2021/12/11 10:52:38;;;;;;;27.88;10.52;;;;;;;5.98;100.00;101632.19;5038112;28;20099;-70
2021/12/11 10:55:11;;;;;;;21.02;9.40;;;;;;;6.05;100.00;101634.84;5037832;28;20163;-70
2021/12/11 10:57:40;;;;;;;22.50;8.77;;;;;;;6.02;100.00;101635.72;5038931;28;20131;-70
2021/12/11 11:00:14;;;;;;;17.25;9.10;;;;;;;6.10;100.00;101639.25;5039313;28;20071;-70
2021/12/11 11:02:43;;;;;;;24.85;7.70;;;;;;;6.15;100.00;101632.19;5039105;28;20134;-70
2021/12/11 11:05:15;;;;;;;26.20;9.13;;;;;;;6.21;100.00;101633.94;5039119;28;20045;-70
2021/12/11 11:07:45;;;;;;;26.23;8.63;;;;;;;6.20;100.00;101636.59;5036687;28;20144;-70
2021/12/11 11:10:18;;;;;;;18.90;7.38;;;;;;;6.17;100.00;101640.13;5040337;28;20143;-69
2021/12/11 11:12:46;;;;;;;16.60;6.27;;;;;;;6.12;100.00;101645.44;5037408;28;20124;-70
2021/12/11 11:15:20;;;;;;;14.80;5.03;;;;;;;6.06;100.00;101653.41;5035483;28;20302;-69
2021/12/11 11:17:49;;;;;;;16.95;5.45;;;;;;;6.03;100.00;101645.44;5037397;28;20037;-70
2021/12/11 11:20:21;;;;;;;16.00;4.75;;;;;;;6.02;100.00;101656.91;5037440;28;20144;-70
2021/12/11 11:22:49;;;;;;;13.82;4.65;;;;;;;6.04;100.00;101656.94;5034462;28;20083;-69
2021/12/11 11:25:20;;;;;;;14.25;5.47;;;;;;;6.09;100.00;101660.44;5038932;28;20076;-70
2021/12/11 11:27:52;;;;;;;14.50;4.72;;;;;;;6.19;100.00;101658.69;5039878;28;20043;-69
2021/12/11 11:30:28;;;;;;;12.10;4.50;;;;;;;6.31;100.00;101651.59;5036979;28;20086;-70
2021/12/11 11:32:56;;;;;;;14.60;4.18;;;;;;;6.52;100.00;101658.63;5039792;28;20056;-69
2021/12/11 11:35:28;;;;;;;15.48;4.80;;;;;;;6.67;100.00;101654.16;5039414;28;20086;-70
2021/12/11 11:37:59;;;;;;;17.25;4.20;;;;;;;6.70;100.00;101665.66;5037236;28;20056;-69
2021/12/11 11:40:30;;;;;;;12.98;3.75;;;;;;;6.95;100.00;101675.28;5038749;28;20140;-70
2021/12/11 11:42:59;;;;;;;12.70;3.95;;;;;;;6.98;100.00;101677.94;5036919;28;20298;-73